sensor_id;sensor_type;location;lat;lon;timestamp;temperature;humidity
6756;DHT22;3415;51.148;7.014;2022-12-07T00:01:47;4.90;1.00
6756;DHT22;3415;51.148;7.014;2022-12-07T00:04:16;4.80;1.00
6756;DHT22;3415;51.148;7.014;2022-12-07T00:06:51;4.80;1.00
6756;DHT22;3415;51.148;7.014;2022-12-07T00:09:18;4.80;1.00
6756;DHT22;3415;51.148;7.014;2022-12-07T00:11:49;4.80;1.00
6756;DHT22;3415;51.148;7.014;2022-12-07T00:14:17;4.80;1.00
6756;DHT22;3415;51.148;7.014;2022-12-07T00:16:44;4.80;1.00
6756;DHT22;3415;51.148;7.014;2022-12-07T00:19:13;4.70;1.00
6756;DHT22;3415;51.148;7.014;2022-12-07T00:21:41;4.70;1.00
6756;DHT22;3415;51.148;7.014;2022-12-07T00:24:10;4.70;1.00
6756;DHT22;3415;51.148;7.014;2022-12-07T00:26:39;4.70;1.00
6756;DHT22;3415;51.148;7.014;2022-12-07T00:29:12;4.70;1.00
6756;DHT22;3415;51.148;7.014;2022-12-07T00:31:42;4.80;1.00
6756;DHT22;3415;51.148;7.014;2022-12-07T00:34:14;4.80;1.00
6756;DHT22;3415;51.148;7.014;2022-12-07T00:36:42;4.80;1.00
6756;DHT22;3415;51.148;7.014;2022-12-07T00:39:11;4.80;1.00
6756;DHT22;3415;51.148;7.014;2022-12-07T00:41:38;4.80;1.00
6756;DHT22;3415;51.148;7.014;2022-12-07T00:44:05;4.80;1.00
6756;DHT22;3415;51.148;7.014;2022-12-07T00:46:32;4.80;1.00
6756;DHT22;3415;51.148;7.014;2022-12-07T00:48:59;4.80;1.00
6756;DHT22;3415;51.148;7.014;2022-12-07T00:51:26;4.80;1.00
6756;DHT22;3415;51.148;7.014;2022-12-07T00:56:24;4.80;1.00
6756;DHT22;3415;51.148;7.014;2022-12-07T00:58:53;4.80;1.00
6756;DHT22;3415;51.148;7.014;2022-12-07T01:01:22;4.80;1.00
6756;DHT22;3415;51.148;7.014;2022-12-07T01:03:49;4.80;1.00
6756;DHT22;3415;51.148;7.014;2022-12-07T01:06:17;4.80;1.00
6756;DHT22;3415;51.148;7.014;2022-12-07T01:08:45;4.80;1.00
6756;DHT22;3415;51.148;7.014;2022-12-07T01:11:14;4.70;1.00
6756;DHT22;3415;51.148;7.014;2022-12-07T01:13:44;4.80;1.00
6756;DHT22;3415;51.148;7.014;2022-12-07T01:16:13;4.80;1.00
6756;DHT22;3415;51.148;7.014;2022-12-07T01:18:41;4.80;1.00
6756;DHT22;3415;51.148;7.014;2022-12-07T01:21:10;4.80;1.00
6756;DHT22;3415;51.148;7.014;2022-12-07T01:23:39;4.80;1.00
6756;DHT22;3415;51.148;7.014;2022-12-07T01:26:07;4.80;1.00
6756;DHT22;3415;51.148;7.014;2022-12-07T01:28:37;4.80;1.00
6756;DHT22;3415;51.148;7.014;2022-12-07T01:31:07;4.80;1.00
6756;DHT22;3415;51.148;7.014;2022-12-07T01:33:37;4.80;1.00
6756;DHT22;3415;51.148;7.014;2022-12-07T01:36:06;4.80;1.00
6756;DHT22;3415;51.148;7.014;2022-12-07T01:38:34;4.80;1.00
6756;DHT22;3415;51.148;7.014;2022-12-07T01:41:02;4.70;1.00
6756;DHT22;3415;51.148;7.014;2022-12-07T01:43:31;4.80;1.00
6756;DHT22;3415;51.148;7.014;2022-12-07T01:46:00;4.80;1.00
6756;DHT22;3415;51.148;7.014;2022-12-07T01:48:31;4.40;1.00
6756;DHT22;3415;51.148;7.014;2022-12-07T01:51:02;4.70;1.00
6756;DHT22;3415;51.148;7.014;2022-12-07T01:53:34;4.70;1.00
6756;DHT22;3415;51.148;7.014;2022-12-07T01:56:03;4.70;1.00
6756;DHT22;3415;51.148;7.014;2022-12-07T01:58:31;4.80;1.00
6756;DHT22;3415;51.148;7.014;2022-12-07T02:00:58;4.70;1.00
6756;DHT22;3415;51.148;7.014;2022-12-07T02:03:31;4.80;1.00
6756;DHT22;3415;51.148;7.014;2022-12-07T02:06:01;4.80;1.00
6756;DHT22;3415;51.148;7.014;2022-12-07T02:08:28;4.80;1.00
6756;DHT22;3415;51.148;7.014;2022-12-07T02:10:55;4.70;1.00
6756;DHT22;3415;51.148;7.014;2022-12-07T02:13:24;4.70;1.00
6756;DHT22;3415;51.148;7.014;2022-12-07T02:16:10;4.80;1.00
6756;DHT22;3415;51.148;7.014;2022-12-07T02:18:59;4.80;1.00
6756;DHT22;3415;51.148;7.014;2022-12-07T02:21:45;4.70;1.00
6756;DHT22;3415;51.148;7.014;2022-12-07T02:24:24;4.70;1.00
6756;DHT22;3415;51.148;7.014;2022-12-07T02:27:18;4.70;1.00
6756;DHT22;3415;51.148;7.014;2022-12-07T02:30:00;4.70;1.00
6756;DHT22;3415;51.148;7.014;2022-12-07T02:32:31;4.70;1.00
6756;DHT22;3415;51.148;7.014;2022-12-07T02:35:10;4.80;1.00
6756;DHT22;3415;51.148;7.014;2022-12-07T02:37:42;4.80;1.00
6756;DHT22;3415;51.148;7.014;2022-12-07T02:40:19;4.80;1.00
6756;DHT22;3415;51.148;7.014;2022-12-07T02:42:52;4.80;1.00
6756;DHT22;3415;51.148;7.014;2022-12-07T02:45:25;4.70;1.00
6756;DHT22;3415;51.148;7.014;2022-12-07T02:47:56;4.90;1.00
6756;DHT22;3415;51.148;7.014;2022-12-07T02:50:25;4.70;1.00
6756;DHT22;3415;51.148;7.014;2022-12-07T02:52:53;4.70;1.00
6756;DHT22;3415;51.148;7.014;2022-12-07T02:55:24;4.70;1.00
6756;DHT22;3415;51.148;7.014;2022-12-07T02:58:06;4.70;1.00
6756;DHT22;3415;51.148;7.014;2022-12-07T03:00:52;4.80;1.00
6756;DHT22;3415;51.148;7.014;2022-12-07T03:03:23;4.70;1.00
6756;DHT22;3415;51.148;7.014;2022-12-07T03:06:09;4.70;1.00
6756;DHT22;3415;51.148;7.014;2022-12-07T03:08:46;4.80;1.00
6756;DHT22;3415;51.148;7.014;2022-12-07T03:11:23;4.80;1.00
6756;DHT22;3415;51.148;7.014;2022-12-07T03:13:59;4.90;1.00
6756;DHT22;3415;51.148;7.014;2022-12-07T03:16:33;4.80;1.00
6756;DHT22;3415;51.148;7.014;2022-12-07T03:19:05;4.80;1.00
6756;DHT22;3415;51.148;7.014;2022-12-07T03:21:37;4.80;1.00
6756;DHT22;3415;51.148;7.014;2022-12-07T03:24:09;4.80;1.00
6756;DHT22;3415;51.148;7.014;2022-12-07T03:26:41;4.80;1.00
6756;DHT22;3415;51.148;7.014;2022-12-07T03:29:18;4.80;1.00
6756;DHT22;3415;51.148;7.014;2022-12-07T03:31:52;4.70;1.00
6756;DHT22;3415;51.148;7.014;2022-12-07T03:34:27;4.70;1.00
6756;DHT22;3415;51.148;7.014;2022-12-07T03:37:00;4.70;1.00
6756;DHT22;3415;51.148;7.014;2022-12-07T03:39:33;4.70;1.00
6756;DHT22;3415;51.148;7.014;2022-12-07T03:42:04;4.70;1.00
6756;DHT22;3415;51.148;7.014;2022-12-07T03:44:32;4.70;1.00
6756;DHT22;3415;51.148;7.014;2022-12-07T03:47:05;4.70;1.00
6756;DHT22;3415;51.148;7.014;2022-12-07T03:49:41;4.70;1.00
6756;DHT22;3415;51.148;7.014;2022-12-07T03:52:20;4.70;1.00
6756;DHT22;3415;51.148;7.014;2022-12-07T03:54:54;4.80;1.00
6756;DHT22;3415;51.148;7.014;2022-12-07T03:57:25;4.80;1.00
6756;DHT22;3415;51.148;7.014;2022-12-07T03:59:54;4.80;1.00
6756;DHT22;3415;51.148;7.014;2022-12-07T04:02:24;4.70;1.00
6756;DHT22;3415;51.148;7.014;2022-12-07T04:04:52;4.80;1.00
6756;DHT22;3415;51.148;7.014;2022-12-07T04:07:19;4.70;1.00
6756;DHT22;3415;51.148;7.014;2022-12-07T04:09:46;4.70;1.00
6756;DHT22;3415;51.148;7.014;2022-12-07T04:12:13;4.80;1.00
6756;DHT22;3415;51.148;7.014;2022-12-07T04:14:40;4.70;1.00
6756;DHT22;3415;51.148;7.014;2022-12-07T04:17:08;4.70;1.00
6756;DHT22;3415;51.148;7.014;2022-12-07T04:19:37;4.70;1.00
6756;DHT22;3415;51.148;7.014;2022-12-07T04:22:04;4.80;1.00
6756;DHT22;3415;51.148;7.014;2022-12-07T04:24:31;4.70;1.00
6756;DHT22;3415;51.148;7.014;2022-12-07T04:26:59;4.70;1.00
6756;DHT22;3415;51.148;7.014;2022-12-07T04:29:26;4.70;1.00
6756;DHT22;3415;51.148;7.014;2022-12-07T04:31:53;4.70;1.00
6756;DHT22;3415;51.148;7.014;2022-12-07T04:34:20;4.70;1.00
6756;DHT22;3415;51.148;7.014;2022-12-07T04:36:49;4.70;1.00
6756;DHT22;3415;51.148;7.014;2022-12-07T04:39:20;4.70;1.00
6756;DHT22;3415;51.148;7.014;2022-12-07T04:41:47;4.70;1.00
6756;DHT22;3415;51.148;7.014;2022-12-07T04:44:15;4.70;1.00
6756;DHT22;3415;51.148;7.014;2022-12-07T04:46:43;4.70;1.00
6756;DHT22;3415;51.148;7.014;2022-12-07T04:49:11;4.60;1.00
6756;DHT22;3415;51.148;7.014;2022-12-07T04:51:38;4.70;1.00
6756;DHT22;3415;51.148;7.014;2022-12-07T04:54:07;4.70;1.00
6756;DHT22;3415;51.148;7.014;2022-12-07T04:56:34;4.70;1.00
6756;DHT22;3415;51.148;7.014;2022-12-07T04:59:02;4.70;1.00
6756;DHT22;3415;51.148;7.014;2022-12-07T05:01:30;4.60;1.00
6756;DHT22;3415;51.148;7.014;2022-12-07T05:03:57;4.70;1.00
6756;DHT22;3415;51.148;7.014;2022-12-07T05:06:24;4.70;1.00
6756;DHT22;3415;51.148;7.014;2022-12-07T05:08:51;4.70;1.00
6756;DHT22;3415;51.148;7.014;2022-12-07T05:11:20;4.60;1.00
6756;DHT22;3415;51.148;7.014;2022-12-07T05:14:08;4.70;1.00
6756;DHT22;3415;51.148;7.014;2022-12-07T05:16:38;4.70;1.00
6756;DHT22;3415;51.148;7.014;2022-12-07T05:19:05;4.70;1.00
6756;DHT22;3415;51.148;7.014;2022-12-07T05:21:33;4.60;1.00
6756;DHT22;3415;51.148;7.014;2022-12-07T05:24:00;4.60;1.00
6756;DHT22;3415;51.148;7.014;2022-12-07T05:26:29;4.60;1.00
6756;DHT22;3415;51.148;7.014;2022-12-07T05:28:56;4.60;1.00
6756;DHT22;3415;51.148;7.014;2022-12-07T05:31:24;4.60;1.00
6756;DHT22;3415;51.148;7.014;2022-12-07T05:33:52;4.60;1.00
6756;DHT22;3415;51.148;7.014;2022-12-07T05:36:20;4.60;1.00
6756;DHT22;3415;51.148;7.014;2022-12-07T05:38:47;4.60;1.00
6756;DHT22;3415;51.148;7.014;2022-12-07T05:41:16;4.60;1.00
6756;DHT22;3415;51.148;7.014;2022-12-07T05:44:03;4.60;1.00
6756;DHT22;3415;51.148;7.014;2022-12-07T05:46:30;4.60;1.00
6756;DHT22;3415;51.148;7.014;2022-12-07T05:48:57;4.60;1.00
6756;DHT22;3415;51.148;7.014;2022-12-07T05:51:24;4.60;1.00
6756;DHT22;3415;51.148;7.014;2022-12-07T05:53:51;4.60;1.00
6756;DHT22;3415;51.148;7.014;2022-12-07T05:56:18;4.60;1.00
6756;DHT22;3415;51.148;7.014;2022-12-07T05:58:45;4.60;1.00
6756;DHT22;3415;51.148;7.014;2022-12-07T06:01:31;4.60;1.00
6756;DHT22;3415;51.148;7.014;2022-12-07T06:03:58;4.50;1.00
6756;DHT22;3415;51.148;7.014;2022-12-07T06:06:25;4.50;1.00
6756;DHT22;3415;51.148;7.014;2022-12-07T06:08:52;4.50;1.00
6756;DHT22;3415;51.148;7.014;2022-12-07T06:11:19;4.60;1.00
6756;DHT22;3415;51.148;7.014;2022-12-07T06:14:04;4.60;1.00
6756;DHT22;3415;51.148;7.014;2022-12-07T06:16:33;4.60;1.00
6756;DHT22;3415;51.148;7.014;2022-12-07T06:19:00;4.50;1.00
6756;DHT22;3415;51.148;7.014;2022-12-07T06:21:27;4.60;1.00
6756;DHT22;3415;51.148;7.014;2022-12-07T06:26:21;4.60;1.00
6756;DHT22;3415;51.148;7.014;2022-12-07T06:28:49;4.60;1.00
6756;DHT22;3415;51.148;7.014;2022-12-07T06:31:16;4.60;1.00
6756;DHT22;3415;51.148;7.014;2022-12-07T06:33:44;4.50;1.00
6756;DHT22;3415;51.148;7.014;2022-12-07T06:36:11;4.50;1.00
6756;DHT22;3415;51.148;7.014;2022-12-07T06:38:38;4.60;1.00
6756;DHT22;3415;51.148;7.014;2022-12-07T06:41:05;4.50;1.00
6756;DHT22;3415;51.148;7.014;2022-12-07T06:43:33;4.50;1.00
6756;DHT22;3415;51.148;7.014;2022-12-07T06:48:27;4.30;1.00
6756;DHT22;3415;51.148;7.014;2022-12-07T06:50:55;4.20;1.00
6756;DHT22;3415;51.148;7.014;2022-12-07T06:53:22;4.30;1.00
6756;DHT22;3415;51.148;7.014;2022-12-07T06:55:49;4.30;1.00
6756;DHT22;3415;51.148;7.014;2022-12-07T06:58:17;4.40;1.00
6756;DHT22;3415;51.148;7.014;2022-12-07T07:00:44;4.40;1.00
6756;DHT22;3415;51.148;7.014;2022-12-07T07:03:12;4.40;1.00
6756;DHT22;3415;51.148;7.014;2022-12-07T07:05:39;4.40;1.00
6756;DHT22;3415;51.148;7.014;2022-12-07T07:08:07;4.30;1.00
6756;DHT22;3415;51.148;7.014;2022-12-07T07:10:35;4.30;1.00
6756;DHT22;3415;51.148;7.014;2022-12-07T07:13:03;4.30;1.00
6756;DHT22;3415;51.148;7.014;2022-12-07T07:15:31;4.30;1.00
6756;DHT22;3415;51.148;7.014;2022-12-07T07:17:59;4.30;1.00
6756;DHT22;3415;51.148;7.014;2022-12-07T07:20:27;4.40;1.00
6756;DHT22;3415;51.148;7.014;2022-12-07T07:22:55;4.40;1.00
6756;DHT22;3415;51.148;7.014;2022-12-07T07:25:24;4.30;1.00
6756;DHT22;3415;51.148;7.014;2022-12-07T07:27:52;4.20;1.00
6756;DHT22;3415;51.148;7.014;2022-12-07T07:30:20;4.20;1.00
6756;DHT22;3415;51.148;7.014;2022-12-07T07:32:49;4.20;1.00
6756;DHT22;3415;51.148;7.014;2022-12-07T07:35:17;4.20;1.00
6756;DHT22;3415;51.148;7.014;2022-12-07T07:37:44;4.20;1.00
6756;DHT22;3415;51.148;7.014;2022-12-07T07:42:41;4.20;1.00
6756;DHT22;3415;51.148;7.014;2022-12-07T07:45:09;4.20;1.00
6756;DHT22;3415;51.148;7.014;2022-12-07T07:47:36;4.20;1.00
6756;DHT22;3415;51.148;7.014;2022-12-07T07:50:05;4.20;1.00
6756;DHT22;3415;51.148;7.014;2022-12-07T07:52:33;4.20;1.00
6756;DHT22;3415;51.148;7.014;2022-12-07T07:55:01;4.20;1.00
6756;DHT22;3415;51.148;7.014;2022-12-07T07:57:28;4.20;1.00
6756;DHT22;3415;51.148;7.014;2022-12-07T07:59:56;4.20;1.00
6756;DHT22;3415;51.148;7.014;2022-12-07T08:02:23;4.20;1.00
6756;DHT22;3415;51.148;7.014;2022-12-07T08:04:50;4.20;1.00
6756;DHT22;3415;51.148;7.014;2022-12-07T08:07:17;4.20;1.00
6756;DHT22;3415;51.148;7.014;2022-12-07T08:09:44;4.20;1.00
6756;DHT22;3415;51.148;7.014;2022-12-07T08:12:11;4.20;1.00
6756;DHT22;3415;51.148;7.014;2022-12-07T08:14:38;4.40;1.00
6756;DHT22;3415;51.148;7.014;2022-12-07T08:17:06;4.40;1.00
6756;DHT22;3415;51.148;7.014;2022-12-07T08:19:33;4.30;1.00
6756;DHT22;3415;51.148;7.014;2022-12-07T08:22:01;4.80;1.00
6756;DHT22;3415;51.148;7.014;2022-12-07T08:24:28;4.40;1.00
6756;DHT22;3415;51.148;7.014;2022-12-07T08:26:55;4.40;1.00
6756;DHT22;3415;51.148;7.014;2022-12-07T08:29:22;4.50;1.00
6756;DHT22;3415;51.148;7.014;2022-12-07T08:31:49;4.40;1.00
6756;DHT22;3415;51.148;7.014;2022-12-07T08:34:17;4.50;1.00
6756;DHT22;3415;51.148;7.014;2022-12-07T08:36:44;4.50;1.00
6756;DHT22;3415;51.148;7.014;2022-12-07T08:39:11;4.60;1.00
6756;DHT22;3415;51.148;7.014;2022-12-07T08:44:06;4.70;1.00
6756;DHT22;3415;51.148;7.014;2022-12-07T08:46:35;4.80;1.00
6756;DHT22;3415;51.148;7.014;2022-12-07T08:49:06;4.80;1.00
6756;DHT22;3415;51.148;7.014;2022-12-07T08:51:37;4.80;1.00
6756;DHT22;3415;51.148;7.014;2022-12-07T08:54:07;4.90;99.90
6756;DHT22;3415;51.148;7.014;2022-12-07T08:56:36;4.90;99.90
6756;DHT22;3415;51.148;7.014;2022-12-07T08:59:03;4.90;99.90
6756;DHT22;3415;51.148;7.014;2022-12-07T09:01:31;4.90;99.90
6756;DHT22;3415;51.148;7.014;2022-12-07T09:03:58;4.90;99.90
6756;DHT22;3415;51.148;7.014;2022-12-07T09:08:56;4.90;99.90
6756;DHT22;3415;51.148;7.014;2022-12-07T09:13:52;5.10;99.90
6756;DHT22;3415;51.148;7.014;2022-12-07T09:16:19;5.10;99.90
6756;DHT22;3415;51.148;7.014;2022-12-07T09:18:46;5.40;99.90
6756;DHT22;3415;51.148;7.014;2022-12-07T09:21:13;5.90;99.90
6756;DHT22;3415;51.148;7.014;2022-12-07T09:23:41;5.80;99.90
6756;DHT22;3415;51.148;7.014;2022-12-07T09:26:10;5.80;99.90
6756;DHT22;3415;51.148;7.014;2022-12-07T09:28:37;5.40;99.90
6756;DHT22;3415;51.148;7.014;2022-12-07T09:31:05;5.40;99.90
6756;DHT22;3415;51.148;7.014;2022-12-07T09:33:32;5.30;99.90
6756;DHT22;3415;51.148;7.014;2022-12-07T09:35:59;5.20;99.90
6756;DHT22;3415;51.148;7.014;2022-12-07T09:38:26;5.10;99.90
6756;DHT22;3415;51.148;7.014;2022-12-07T09:40:55;5.10;99.90
6756;DHT22;3415;51.148;7.014;2022-12-07T09:43:25;5.40;99.90
6756;DHT22;3415;51.148;7.014;2022-12-07T09:45:54;5.60;99.90
6756;DHT22;3415;51.148;7.014;2022-12-07T09:48:25;5.60;99.90
6756;DHT22;3415;51.148;7.014;2022-12-07T09:50:58;5.70;99.90
6756;DHT22;3415;51.148;7.014;2022-12-07T09:53:28;5.70;99.90
6756;DHT22;3415;51.148;7.014;2022-12-07T09:58:27;5.90;99.90
6756;DHT22;3415;51.148;7.014;2022-12-07T10:00:58;5.90;99.90
6756;DHT22;3415;51.148;7.014;2022-12-07T10:03:27;5.70;99.90
6756;DHT22;3415;51.148;7.014;2022-12-07T10:05:55;5.80;99.90
6756;DHT22;3415;51.148;7.014;2022-12-07T10:08:25;5.50;99.90
6756;DHT22;3415;51.148;7.014;2022-12-07T10:10:53;5.70;99.90
6756;DHT22;3415;51.148;7.014;2022-12-07T10:13:33;5.70;99.90
6756;DHT22;3415;51.148;7.014;2022-12-07T10:16:03;6.00;99.90
6756;DHT22;3415;51.148;7.014;2022-12-07T10:18:32;6.40;99.90
6756;DHT22;3415;51.148;7.014;2022-12-07T10:21:05;6.70;38.30
6756;DHT22;3415;51.148;7.014;2022-12-07T10:23:38;6.60;38.10
6756;DHT22;3415;51.148;7.014;2022-12-07T10:26:29;6.60;41.20
6756;DHT22;3415;51.148;7.014;2022-12-07T10:29:02;6.10;37.70
6756;DHT22;3415;51.148;7.014;2022-12-07T10:31:31;6.10;37.40
6756;DHT22;3415;51.148;7.014;2022-12-07T10:33:59;6.10;40.30
6756;DHT22;3415;51.148;7.014;2022-12-07T10:36:34;6.10;40.30
6756;DHT22;3415;51.148;7.014;2022-12-07T10:39:04;6.00;28.60
6756;DHT22;3415;51.148;7.014;2022-12-07T10:41:52;5.80;37.40
6756;DHT22;3415;51.148;7.014;2022-12-07T10:44:24;5.80;40.20
6756;DHT22;3415;51.148;7.014;2022-12-07T10:46:59;5.80;40.10
6756;DHT22;3415;51.148;7.014;2022-12-07T10:53:01;5.70;40.50
6756;DHT22;3415;51.148;7.014;2022-12-07T10:56:02;5.70;40.10
6756;DHT22;3415;51.148;7.014;2022-12-07T10:58:58;5.70;40.50
6756;DHT22;3415;51.148;7.014;2022-12-07T11:01:34;5.70;44.10
6756;DHT22;3415;51.148;7.014;2022-12-07T11:04:18;5.80;40.20
6756;DHT22;3415;51.148;7.014;2022-12-07T11:06:54;5.80;40.30
6756;DHT22;3415;51.148;7.014;2022-12-07T11:09:44;5.80;37.40
6756;DHT22;3415;51.148;7.014;2022-12-07T11:12:26;6.10;37.80
6756;DHT22;3415;51.148;7.014;2022-12-07T11:15:07;6.10;37.70
6756;DHT22;3415;51.148;7.014;2022-12-07T11:17:48;6.10;42.20
6756;DHT22;3415;51.148;7.014;2022-12-07T11:20:33;6.20;23.20
6756;DHT22;3415;51.148;7.014;2022-12-07T11:23:13;6.20;23.00
6756;DHT22;3415;51.148;7.014;2022-12-07T11:25:53;6.30;15.00
6756;DHT22;3415;51.148;7.014;2022-12-07T11:28:45;6.00;9.70
6756;DHT22;3415;51.148;7.014;2022-12-07T11:31:30;6.00;12.90
6756;DHT22;3415;51.148;7.014;2022-12-07T11:34:11;6.00;9.60
6756;DHT22;3415;51.148;7.014;2022-12-07T11:36:44;6.30;10.60
6756;DHT22;3415;51.148;7.014;2022-12-07T11:39:22;6.60;1.00
6756;DHT22;3415;51.148;7.014;2022-12-07T11:41:55;6.80;1.00
6756;DHT22;3415;51.148;7.014;2022-12-07T11:44:30;6.60;1.00
6756;DHT22;3415;51.148;7.014;2022-12-07T11:47:02;6.30;1.00
6756;DHT22;3415;51.148;7.014;2022-12-07T11:49:43;6.40;1.00
6756;DHT22;3415;51.148;7.014;2022-12-07T11:52:22;6.40;1.00
6756;DHT22;3415;51.148;7.014;2022-12-07T11:54:53;6.60;1.00
6756;DHT22;3415;51.148;7.014;2022-12-07T11:57:27;7.60;1.00
6756;DHT22;3415;51.148;7.014;2022-12-07T12:00:02;7.60;1.00
6756;DHT22;3415;51.148;7.014;2022-12-07T12:02:36;8.10;1.00
6756;DHT22;3415;51.148;7.014;2022-12-07T12:05:13;8.20;1.00
6756;DHT22;3415;51.148;7.014;2022-12-07T12:07:43;8.20;1.00
6756;DHT22;3415;51.148;7.014;2022-12-07T12:10:19;8.30;1.00
6756;DHT22;3415;51.148;7.014;2022-12-07T12:12:58;8.20;1.00
6756;DHT22;3415;51.148;7.014;2022-12-07T12:15:42;7.80;1.00
6756;DHT22;3415;51.148;7.014;2022-12-07T12:18:53;7.80;1.00
6756;DHT22;3415;51.148;7.014;2022-12-07T12:21:29;7.70;1.00
6756;DHT22;3415;51.148;7.014;2022-12-07T12:24:00;7.50;1.00
6756;DHT22;3415;51.148;7.014;2022-12-07T12:26:31;7.50;1.00
6756;DHT22;3415;51.148;7.014;2022-12-07T12:29:01;7.00;1.00
6756;DHT22;3415;51.148;7.014;2022-12-07T12:31:35;7.00;1.00
6756;DHT22;3415;51.148;7.014;2022-12-07T12:34:32;6.80;1.00
6756;DHT22;3415;51.148;7.014;2022-12-07T12:37:44;6.60;1.00
6756;DHT22;3415;51.148;7.014;2022-12-07T12:40:40;6.70;1.00
6756;DHT22;3415;51.148;7.014;2022-12-07T12:46:49;6.50;1.00
6756;DHT22;3415;51.148;7.014;2022-12-07T12:53:03;6.50;1.00
6756;DHT22;3415;51.148;7.014;2022-12-07T12:56:06;6.50;1.00
6756;DHT22;3415;51.148;7.014;2022-12-07T12:58:44;6.50;1.00
6756;DHT22;3415;51.148;7.014;2022-12-07T13:01:46;6.50;1.00
6756;DHT22;3415;51.148;7.014;2022-12-07T13:04:39;6.50;1.00
6756;DHT22;3415;51.148;7.014;2022-12-07T13:10:40;6.40;1.00
6756;DHT22;3415;51.148;7.014;2022-12-07T13:13:34;6.40;1.00
6756;DHT22;3415;51.148;7.014;2022-12-07T13:16:36;6.50;1.00
6756;DHT22;3415;51.148;7.014;2022-12-07T13:22:59;6.40;1.00
6756;DHT22;3415;51.148;7.014;2022-12-07T13:25:31;6.30;1.00
6756;DHT22;3415;51.148;7.014;2022-12-07T13:28:10;6.20;1.00
6756;DHT22;3415;51.148;7.014;2022-12-07T13:30:47;6.20;1.00
6756;DHT22;3415;51.148;7.014;2022-12-07T13:35:48;6.10;1.00
6756;DHT22;3415;51.148;7.014;2022-12-07T13:38:27;6.10;1.00
6756;DHT22;3415;51.148;7.014;2022-12-07T13:41:15;6.10;1.00
6756;DHT22;3415;51.148;7.014;2022-12-07T13:43:46;6.20;1.00
6756;DHT22;3415;51.148;7.014;2022-12-07T13:46:15;6.10;1.00
6756;DHT22;3415;51.148;7.014;2022-12-07T13:48:46;6.10;1.00
6756;DHT22;3415;51.148;7.014;2022-12-07T13:51:20;6.10;1.00
6756;DHT22;3415;51.148;7.014;2022-12-07T13:53:51;6.00;1.00
6756;DHT22;3415;51.148;7.014;2022-12-07T13:56:22;6.10;1.00
6756;DHT22;3415;51.148;7.014;2022-12-07T13:58:51;6.00;1.00
6756;DHT22;3415;51.148;7.014;2022-12-07T14:01:18;6.10;1.00
6756;DHT22;3415;51.148;7.014;2022-12-07T14:03:45;6.10;1.00
6756;DHT22;3415;51.148;7.014;2022-12-07T14:06:20;6.10;1.00
6756;DHT22;3415;51.148;7.014;2022-12-07T14:09:16;6.00;1.00
6756;DHT22;3415;51.148;7.014;2022-12-07T14:11:45;6.10;1.00
6756;DHT22;3415;51.148;7.014;2022-12-07T14:14:16;6.00;1.00
6756;DHT22;3415;51.148;7.014;2022-12-07T14:16:58;6.10;1.00
6756;DHT22;3415;51.148;7.014;2022-12-07T14:19:45;6.10;1.00
6756;DHT22;3415;51.148;7.014;2022-12-07T14:22:27;6.10;1.00
6756;DHT22;3415;51.148;7.014;2022-12-07T14:25:17;6.10;1.00
6756;DHT22;3415;51.148;7.014;2022-12-07T14:27:50;6.10;1.00
6756;DHT22;3415;51.148;7.014;2022-12-07T14:30:24;6.20;1.00
6756;DHT22;3415;51.148;7.014;2022-12-07T14:32:55;6.30;1.00
6756;DHT22;3415;51.148;7.014;2022-12-07T14:37:52;6.10;1.00
6756;DHT22;3415;51.148;7.014;2022-12-07T14:40:22;6.10;1.00
6756;DHT22;3415;51.148;7.014;2022-12-07T14:42:55;6.10;1.00
6756;DHT22;3415;51.148;7.014;2022-12-07T14:45:23;6.10;1.00
6756;DHT22;3415;51.148;7.014;2022-12-07T14:47:50;6.10;1.00
6756;DHT22;3415;51.148;7.014;2022-12-07T14:50:20;6.10;1.00
6756;DHT22;3415;51.148;7.014;2022-12-07T14:52:49;6.10;1.00
6756;DHT22;3415;51.148;7.014;2022-12-07T14:55:23;6.10;1.00
6756;DHT22;3415;51.148;7.014;2022-12-07T14:57:51;6.00;1.00
6756;DHT22;3415;51.148;7.014;2022-12-07T15:00:20;6.00;1.00
6756;DHT22;3415;51.148;7.014;2022-12-07T15:02:48;5.80;1.00
6756;DHT22;3415;51.148;7.014;2022-12-07T15:05:16;5.70;1.00
6756;DHT22;3415;51.148;7.014;2022-12-07T15:07:44;5.70;1.00
6756;DHT22;3415;51.148;7.014;2022-12-07T15:10:15;5.40;1.00
6756;DHT22;3415;51.148;7.014;2022-12-07T15:12:46;5.40;1.00
6756;DHT22;3415;51.148;7.014;2022-12-07T15:15:13;5.20;1.00
6756;DHT22;3415;51.148;7.014;2022-12-07T15:17:40;5.20;1.00
6756;DHT22;3415;51.148;7.014;2022-12-07T15:20:11;5.20;1.00
6756;DHT22;3415;51.148;7.014;2022-12-07T15:22:39;5.00;1.00
6756;DHT22;3415;51.148;7.014;2022-12-07T15:25:06;4.90;1.00
6756;DHT22;3415;51.148;7.014;2022-12-07T15:30:04;4.80;1.00
6756;DHT22;3415;51.148;7.014;2022-12-07T15:32:32;4.80;1.00
6756;DHT22;3415;51.148;7.014;2022-12-07T15:34:59;4.70;1.00
6756;DHT22;3415;51.148;7.014;2022-12-07T15:37:26;4.70;1.00
6756;DHT22;3415;51.148;7.014;2022-12-07T15:39:53;4.70;1.00
6756;DHT22;3415;51.148;7.014;2022-12-07T15:42:20;4.60;1.00
6756;DHT22;3415;51.148;7.014;2022-12-07T15:44:47;4.70;1.00
6756;DHT22;3415;51.148;7.014;2022-12-07T15:47:34;4.70;1.00
6756;DHT22;3415;51.148;7.014;2022-12-07T15:50:03;4.70;1.00
6756;DHT22;3415;51.148;7.014;2022-12-07T15:52:30;4.80;1.00
6756;DHT22;3415;51.148;7.014;2022-12-07T15:57:28;4.90;1.00
6756;DHT22;3415;51.148;7.014;2022-12-07T15:59:55;4.90;1.00
6756;DHT22;3415;51.148;7.014;2022-12-07T16:02:22;5.00;1.00
6756;DHT22;3415;51.148;7.014;2022-12-07T16:04:52;5.00;1.00
6756;DHT22;3415;51.148;7.014;2022-12-07T16:07:19;5.00;1.00
6756;DHT22;3415;51.148;7.014;2022-12-07T16:09:47;5.00;1.00
6756;DHT22;3415;51.148;7.014;2022-12-07T16:12:15;5.10;1.00
6756;DHT22;3415;51.148;7.014;2022-12-07T16:14:43;5.00;1.00
6756;DHT22;3415;51.148;7.014;2022-12-07T16:17:11;5.00;1.00
6756;DHT22;3415;51.148;7.014;2022-12-07T16:19:38;5.00;1.00
6756;DHT22;3415;51.148;7.014;2022-12-07T16:22:07;5.00;1.00
6756;DHT22;3415;51.148;7.014;2022-12-07T16:24:34;5.00;1.00
6756;DHT22;3415;51.148;7.014;2022-12-07T16:27:02;4.90;1.00
6756;DHT22;3415;51.148;7.014;2022-12-07T16:29:29;4.90;1.00
6756;DHT22;3415;51.148;7.014;2022-12-07T16:31:57;4.90;1.00
6756;DHT22;3415;51.148;7.014;2022-12-07T16:34:23;4.90;1.00
6756;DHT22;3415;51.148;7.014;2022-12-07T16:36:50;4.90;1.00
6756;DHT22;3415;51.148;7.014;2022-12-07T16:39:19;4.90;1.00
6756;DHT22;3415;51.148;7.014;2022-12-07T16:44:13;4.80;1.00
6756;DHT22;3415;51.148;7.014;2022-12-07T16:46:41;4.80;1.00
6756;DHT22;3415;51.148;7.014;2022-12-07T16:49:11;4.80;1.00
6756;DHT22;3415;51.148;7.014;2022-12-07T16:51:40;4.80;1.00
6756;DHT22;3415;51.148;7.014;2022-12-07T16:54:09;4.90;1.00
6756;DHT22;3415;51.148;7.014;2022-12-07T16:56:40;4.70;1.00
6756;DHT22;3415;51.148;7.014;2022-12-07T16:59:07;4.70;1.00
6756;DHT22;3415;51.148;7.014;2022-12-07T17:01:35;4.70;1.00
6756;DHT22;3415;51.148;7.014;2022-12-07T17:04:03;4.70;1.00
6756;DHT22;3415;51.148;7.014;2022-12-07T17:06:31;4.70;1.00
6756;DHT22;3415;51.148;7.014;2022-12-07T17:08:59;4.60;1.00
6756;DHT22;3415;51.148;7.014;2022-12-07T17:11:27;4.60;1.00
6756;DHT22;3415;51.148;7.014;2022-12-07T17:13:57;4.60;1.00
6756;DHT22;3415;51.148;7.014;2022-12-07T17:16:42;4.60;1.00
6756;DHT22;3415;51.148;7.014;2022-12-07T17:19:10;4.60;1.00
6756;DHT22;3415;51.148;7.014;2022-12-07T17:21:39;4.60;1.00
6756;DHT22;3415;51.148;7.014;2022-12-07T17:24:09;4.60;1.00
6756;DHT22;3415;51.148;7.014;2022-12-07T17:26:37;4.60;1.00
6756;DHT22;3415;51.148;7.014;2022-12-07T17:29:06;6.40;1.00
6756;DHT22;3415;51.148;7.014;2022-12-07T17:31:34;4.60;1.00
6756;DHT22;3415;51.148;7.014;2022-12-07T17:34:01;4.60;1.00
6756;DHT22;3415;51.148;7.014;2022-12-07T17:36:30;4.60;1.00
6756;DHT22;3415;51.148;7.014;2022-12-07T17:38:58;4.70;1.00
6756;DHT22;3415;51.148;7.014;2022-12-07T17:41:26;4.70;1.00
6756;DHT22;3415;51.148;7.014;2022-12-07T17:44:14;4.70;1.00
6756;DHT22;3415;51.148;7.014;2022-12-07T17:46:43;4.70;1.00
6756;DHT22;3415;51.148;7.014;2022-12-07T17:49:10;4.80;1.00
6756;DHT22;3415;51.148;7.014;2022-12-07T17:51:37;4.70;1.00